Nearby METAR Reports


 

CYOO - Oshawa, Municipal Airport, Ontario, Canada
Distance from station: NW 3.2km
Updated: 02/10/2022 14:00
Clear
Clear
 Wind from NNE
Wind: NNE 19 km/h, Gust: 33 km/h
Temperature: 15°C
Dew Point: 1°C
Humidity: 39%
Barometer: 1027.4 hPa
Clouds: Clear
Visibility: 14 km
2022/10/02 18:00 CYOO 021800Z AUTO 02010G18KT 9SM CLR 15/01 A3034 RMK SLP279
CYKZ - Toronto, Buttonville, Municipal Airport, Ontario, Canada
Distance from station: W 39.75km
Updated: 03/01/2019 04:00
NOT Current
Partly cloudy
Partly cloudy
 Wind from WSW
Wind: WSW 7 km/h
Temperature: -3°C
Wind Chill: -6°C
Dew Point: -5°C
Humidity: 86%
Barometer: 1010.8 hPa
Clouds: Partly cloudy
Visibility: 24 km
Cloud details: Partly cloudy 1219 m
2019/01/03 09:00 CYKZ 030900Z 25004KT 15SM SCT040 M03/M05 A2985 RMK SC3 LAST STFD OBS FAREWELL SLP118
 
CXTO - Toronto City, Buttonville, Ontario, Canada
Distance from station: WSW 49km
Updated: 02/10/2022 14:00

 
Temperature: 15°C
Dew Point: -1°C
Humidity: 34%
2022/10/02 18:00 CXTO 021800Z AUTO 15/M01 RMK AO1 SLP280 T01481010 58004
CYTZ - Toronto City, Island Airport, Ontario, Canada
Distance from station: SW 51.7km
Updated: 02/10/2022 14:00
Clear
Clear
 Wind from ENE
Wind: ENE 26 km/h
Temperature: 12°C
Dew Point: 3°C
Humidity: 54%
Barometer: 1027.8 hPa
Clouds: Clear
Visibility: 14 km
2022/10/02 18:00 CYTZ 021800Z AUTO 06014KT 9SM CLR 12/03 A3035 RMK SLP280
 
CYPQ - Toronto, Peterborough Airport, Ontario, Canada
Distance from station: NE 54km
Updated: 02/10/2022 14:00
Clear
Clear
 Wind from N
Wind: N 20 km/h, Gust: 30 km/h
Temperature: 13°C
Dew Point: 0°C
Humidity: 41%
Barometer: 1027.8 hPa
Clouds: Clear
Visibility: 14 km
2022/10/02 18:00 CYPQ 021800Z AUTO 01011G16KT 9SM CLR 13/00 A3035 RMK SLP283
CWNC - Cobourg, (mars), Ontario, Canada
Distance from station: E 57km
Updated: 02/10/2022 14:00

 Wind from NE
Wind: NE 15 km/h
Temperature: 14°C
Dew Point: 0°C
Humidity: 39%
2022/10/02 18:00 CWNC 021800Z AUTO 05008KT 14/M00 RMK AO1 PK WND 03018/1726 SLP276 T01401001 58002
 
CYYZ - Toronto, Lester Pearson Airport, Ontario, Canada
Distance from station: W 65.5km
Updated: 02/10/2022 14:00
Few Clouds
Few Clouds
 Wind from NE
Wind: NE 17 km/h, Gust: 33 km/h
Temperature: 15°C
Dew Point: -1°C
Humidity: 34%
Barometer: 1027.4 hPa
Clouds: Few Clouds
Visibility: 24 km
Cloud details: Few Clouds 7620 m
2022/10/02 18:00 CYYZ 021800Z 05009G18KT 350V070 15SM FEW250 15/M01 A3034 RMK CI1 CI TR SLP280
CWGL - Lagoon City, Ontario, Canada
Distance from station: NNW 74km
Updated: 02/10/2022 14:00

 Wind from NE
Wind: NE 15 km/h
Temperature: 12°C
Dew Point: -1°C
Humidity: 41%
2022/10/02 18:00 CWGL 021800Z AUTO 04008KT 12/M01 RMK AO1 SLP272 T01211012 58007
 
CWWZ - Port Weller Airport, Ontario, Canada
Distance from station: SSW 77km
Updated: 02/10/2022 14:00

 Wind from NE
Wind: NE 31 km/h
Temperature: 12°C
Dew Point: 6°C
Humidity: 67%
2022/10/02 18:00 CWWZ 021800Z AUTO 05017KT 12/06 RMK AO1 PK WND 05021/1718 SLP277 T01170061 58001
CYSN - St.Catharines Niagara Airport, Ontario, Canada
Distance from station: SSW 81km
Updated: 02/10/2022 14:00
Few Clouds
Few Clouds
 Wind from NE
Wind: NE 30 km/h, Gust: 43 km/h
Temperature: 13°C
Dew Point: 5°C
Humidity: 59%
Barometer: 1026.8 hPa
Clouds: Few Clouds
Visibility: 24 km
Cloud details: Few Clouds 762 m
Few Clouds 7620 m
2022/10/02 18:00 CYSN 021800Z 05016G23KT 15SM FEW025 FEW250 13/05 A3032 RMK SC1CI1 SC TR SLP271
This data is offered only as a general guide to local weather conditions. It should not be relied upon in lieu of officially disseminated weather information for determining possible risk to persons or property. This site, including all information contained therein, is made available as is without warranties of any kind, either express or implied. The Vicarage Weather Feed© includes links to other sites for user convenience only. The content of any linked third-party site is not controlled by The Vicarage Weather Feed©. Access to any third-party website through The Vicarage Weather Feed©, regardless of whether or not the third-party site is a linked site, is entirely at the users own risk. Externally sourced content or material is excluded from The Vicarage Weather Feed© copyright and is the copyright and property of the respective provider. Skywarn® and the Skywarn® logo are registered trademarks of the National Oceanic and Atmospheric Administration, used with permission.